McHenry, IL (60050)

8:08 AM CST on January 20, 2017 (GMT -0600)
Pheasant Valley | | Change Station

Elev 768 ft 42.35 °N, 88.30 °W | Updated 11 seconds ago

Overcast
Overcast
38.8 °F
Feels Like 39 °F
N
0.0
Wind Variable Wind from WNW
Gusts 0.0 mph

Today
High -- | Low -- °F
--% Chance of Precip.
Yesterday
High -- | Low -- °F
Precip. -- in
Pressure 29.63 in
Visibility 0.5 miles
Clouds Overcast 200 ft
Windchill 39 °F
Dew Point 37 °F
Humidity 94%
Rainfall 0.00 in
Snow Depth Not available.
7:16 AM 4:52 PM
Last Quarter, 44% visible
SPECI KUGN 201358Z 05006KT 1/2SM FG OVC002 03/02 A2963 RMK AO2 T00280022
Pressure 29.63 in
Visibility 0.5 miles
Clouds Overcast 200 ft
Windchill 39 °F
Dew Point 37 °F
Humidity 94%
Rainfall 0.00 in
Snow Depth Not available.
7:16 AM 4:52 PM
Last Quarter, 44% visible
SPECI KUGN 201358Z 05006KT 1/2SM FG OVC002 03/02 A2963 RMK AO2 T00280022

Get Your Daily Forecast Email!

Thanks for signing up!

Be on the lookout for a verification email in your inbox.

You'll start receiving the daily forecast at 8 AM.

×

10-Day Weather Forecast

Almanac

Astronomy

Jan. 20, 2017 Rise Set
Actual Time
Civil Twilight
Nautical Twilight
Astronomical Twilight
Moon
Length of Visible Light
Length of Day
Tomorrow will be .
, % of the Moon is Illuminated

Today's Extremes

State Highs State Lows

Community

WunderPhotos

Upload Photos

1,962,540 photos uploaded!

WunderBlog® & News

Nearby

Air Quality

  Air Quality AQ Index Pollutant
Not available.

Snow Depth

Station Depth Elevation

Earthquake Activity

City Distance Mag. Time & Date
Minimum magnitude displayed is 2.5.

Coastal Water Temperatures

Place Temperature

Stations

Nearby Weather Stations

Station Location Temp. Windchill Dew Point Humidity Wind Precip. Elev Updated Type
                   

Watches & Warnings

There are currently no watches in effect.